Time;durP1;ratioP1;P1;durP2;ratioP2;P2;SDS_P1;SDS_P2;PMS_P1;PMS_P2;Temp;Humidity;BMP_temperature;BMP_pressure;BME280_temperature;BME280_humidity;BME280_pressure;Samples;Min_cycle;Max_cycle;Signal;HPM_P1;HPM_P2
2022/01/19 00:02:17;;;;;;;222.95;126.90;;;;;;;2.49;67.35;100119.72;5093523;28;20392;-48
2022/01/19 00:04:43;;;;;;;124.30;89.07;;;;;;;2.44;67.86;100125.25;5094771;28;20016;-49
2022/01/19 00:07:09;;;;;;;44.03;29.52;;;;;;;2.43;67.77;100120.19;5094711;28;20546;-48
2022/01/19 00:09:35;;;;;;;45.35;31.25;;;;;;;2.37;67.43;100116.25;5093438;28;20020;-49
2022/01/19 00:12:01;;;;;;;40.63;27.52;;;;;;;2.16;67.76;100098.75;5094619;28;20551;-48
2022/01/19 00:14:27;;;;;;;35.78;25.60;;;;;;;2.04;68.23;100104.00;5094610;28;20433;-49
2022/01/19 00:16:53;;;;;;;37.60;25.48;;;;;;;2.00;68.85;100104.22;5094490;28;20024;-48
2022/01/19 00:19:19;;;;;;;38.50;25.45;;;;;;;2.01;69.05;100125.75;5094485;28;20462;-48
2022/01/19 00:21:45;;;;;;;46.03;29.33;;;;;;;1.96;68.84;100138.22;5094407;28;20024;-48
2022/01/19 00:24:10;;;;;;;34.42;22.67;;;;;;;1.92;69.31;100147.13;5094440;28;20024;-48
2022/01/19 00:26:36;;;;;;;37.00;23.13;;;;;;;1.90;69.22;100146.41;5094368;28;20073;-48
2022/01/19 00:29:03;;;;;;;32.90;22.92;;;;;;;1.91;68.98;100143.72;5091996;28;20515;-48
2022/01/19 00:31:28;;;;;;;35.40;24.13;;;;;;;1.91;69.62;100142.88;5094313;28;20030;-50
2022/01/19 00:33:54;;;;;;;38.70;23.10;;;;;;;2.18;70.04;100150.47;5094203;28;20020;-49
2022/01/19 00:36:20;;;;;;;32.80;22.80;;;;;;;2.53;69.48;100147.88;5093907;28;20036;-48
2022/01/19 00:38:45;;;;;;;35.13;23.90;;;;;;;2.75;68.12;100135.94;5092791;28;20085;-48
2022/01/19 00:41:11;;;;;;;29.88;22.90;;;;;;;2.77;67.68;100132.28;5094080;28;20513;-49
2022/01/19 00:43:38;;;;;;;45.38;35.80;;;;;;;2.75;67.26;100138.53;5092743;28;20498;-48
2022/01/19 00:46:04;;;;;;;34.53;25.90;;;;;;;2.82;66.95;100133.72;5093958;28;20031;-49
2022/01/19 00:48:30;;;;;;;32.47;24.52;;;;;;;2.85;66.86;100133.50;5094004;28;20024;-47
2022/01/19 00:50:57;;;;;;;33.08;24.55;;;;;;;2.79;67.37;100127.00;5093907;28;20490;-48
2022/01/19 00:53:24;;;;;;;34.38;25.13;;;;;;;2.78;67.43;100133.13;5093917;28;20020;-49
2022/01/19 00:55:50;;;;;;;29.90;21.77;;;;;;;2.79;67.72;100132.19;5093766;28;20387;-49
2022/01/19 00:58:16;;;;;;;59.15;50.58;;;;;;;2.89;67.23;100124.53;5093667;28;20494;-50
2022/01/19 01:00:42;;;;;;;41.33;35.15;;;;;;;2.90;67.03;100119.25;5092444;28;20062;-48
2022/01/19 01:03:08;;;;;;;29.00;23.77;;;;;;;2.94;67.18;100115.47;5093673;28;20020;-48
2022/01/19 01:05:34;;;;;;;34.67;25.25;;;;;;;3.00;66.77;100107.22;5092299;28;20047;-48
2022/01/19 01:08:00;;;;;;;45.08;37.10;;;;;;;2.97;66.64;100104.03;5092260;28;20024;-48
2022/01/19 01:10:26;;;;;;;46.35;28.35;;;;;;;2.87;67.05;100103.91;5093468;28;20027;-48
2022/01/19 01:12:54;;;;;;;34.10;20.85;;;;;;;2.98;67.31;100110.91;5093486;28;20024;-49
2022/01/19 01:16:01;;;;;;;34.15;20.30;;;;;;;3.10;67.22;100120.34;5093413;28;20471;-49
2022/01/19 01:18:18;;;;;;;31.77;21.20;;;;;;;3.24;66.58;100127.06;5092759;28;20468;-48
2022/01/19 01:20:45;;;;;;;31.75;23.67;;;;;;;3.32;66.40;100129.91;5093307;28;20051;-48
2022/01/19 01:23:11;;;;;;;31.20;21.55;;;;;;;3.42;66.19;100135.22;5093307;28;20028;-49
2022/01/19 01:25:38;;;;;;;28.27;21.50;;;;;;;3.38;65.52;100142.41;5091932;28;20027;-49
2022/01/19 01:28:05;;;;;;;32.00;25.85;;;;;;;3.14;65.59;100146.84;5091913;28;20065;-49
2022/01/19 01:30:31;;;;;;;30.83;22.17;;;;;;;3.03;66.00;100142.47;5093187;28;20020;-49
2022/01/19 01:32:57;;;;;;;31.58;21.90;;;;;;;3.02;66.12;100143.44;5091833;28;20095;-47
2022/01/19 01:35:24;;;;;;;29.92;19.60;;;;;;;2.99;66.09;100135.88;5091464;28;20448;-48
2022/01/19 01:37:49;;;;;;;31.23;21.85;;;;;;;2.91;66.26;100130.44;5091594;28;20026;-49
2022/01/19 01:40:15;;;;;;;30.55;22.25;;;;;;;2.75;66.46;100122.97;5091451;28;20023;-48
2022/01/19 01:42:42;;;;;;;28.10;21.27;;;;;;;2.54;66.62;100134.00;5092925;28;20024;-47
2022/01/19 01:45:15;;;;;;;33.10;21.77;;;;;;;2.32;66.92;100126.97;5092869;28;20541;-48
2022/01/19 01:47:46;;;;;;;29.00;20.58;;;;;;;2.20;68.09;100125.28;5092885;28;20066;-47
2022/01/19 01:55:24;;;;;;;30.13;20.40;;;;;;;2.42;68.19;100124.53;5092752;28;20535;-49
2022/01/19 01:57:50;;;;;;;30.10;21.77;;;;;;;2.39;67.75;100127.34;5092589;28;20028;-49
2022/01/19 02:00:20;;;;;;;33.08;20.88;;;;;;;2.30;67.79;100128.03;5092630;28;20054;-48
2022/01/19 02:02:48;;;;;;;29.55;19.92;;;;;;;2.20;68.03;100123.50;5092907;28;20464;-47
2022/01/19 02:05:17;;;;;;;31.77;21.30;;;;;;;2.13;68.22;100118.88;5092500;28;20026;-49
2022/01/19 02:16:12;;;;;;;27.60;20.90;;;;;;;1.70;68.69;100115.00;5092359;28;20031;-50
2022/01/19 02:21:44;;;;;;;31.52;19.98;;;;;;;1.58;69.38;100102.91;5092279;28;20105;-48
2022/01/19 02:24:15;;;;;;;29.63;21.30;;;;;;;1.55;69.17;100101.38;5090972;28;20473;-47
2022/01/19 02:26:57;;;;;;;40.13;23.30;;;;;;;1.54;69.31;100111.84;5092480;28;20039;-49
2022/01/19 02:40:30;;;;;;;39.13;25.08;;;;;;;1.16;70.43;100084.25;5092036;28;20058;-48
2022/01/19 02:43:07;;;;;;;31.80;22.52;;;;;;;1.17;70.21;100081.59;5091975;28;20498;-48
2022/01/19 02:51:06;;;;;;;37.58;24.50;;;;;;;0.96;70.48;100080.47;5092184;28;20139;-48
2022/01/19 02:53:34;;;;;;;31.75;24.83;;;;;;;0.88;70.51;100077.56;5090009;28;20055;-49
2022/01/19 02:55:59;;;;;;;38.83;25.33;;;;;;;0.85;70.41;100072.63;5091809;28;20020;-49
2022/01/19 02:58:25;;;;;;;30.67;23.63;;;;;;;0.81;71.35;100071.19;5091758;28;20490;-50
2022/01/19 03:09:04;;;;;;;31.00;22.60;;;;;;;0.91;70.56;100067.03;5092026;28;20031;-48
2022/01/19 03:11:31;;;;;;;34.35;23.48;;;;;;;0.82;70.47;100070.22;5090376;28;20023;-49
2022/01/19 03:13:56;;;;;;;35.10;24.10;;;;;;;0.76;70.58;100068.88;5091668;28;20175;-48
2022/01/19 03:16:22;;;;;;;35.45;24.23;;;;;;;0.68;70.53;100066.81;5090238;28;20024;-48
2022/01/19 03:18:49;;;;;;;37.53;25.80;;;;;;;0.61;71.69;100063.00;5090268;28;20026;-47
2022/01/19 03:21:17;;;;;;;39.85;24.08;;;;;;;0.65;71.59;100059.28;5090291;28;20048;-48
2022/01/19 03:23:44;;;;;;;34.28;23.30;;;;;;;0.69;71.59;100060.72;5090241;28;20106;-48
2022/01/19 03:26:10;;;;;;;42.67;25.23;;;;;;;0.66;71.64;100057.50;5090210;28;20024;-48
2022/01/19 03:28:36;;;;;;;42.60;25.33;;;;;;;0.73;71.60;100057.00;5090203;28;20035;-48
2022/01/19 03:31:04;;;;;;;34.25;21.85;;;;;;;0.84;71.46;100063.19;5107150;28;20030;-48
2022/01/19 03:33:30;;;;;;;40.10;23.85;;;;;;;0.91;71.75;100057.53;5090158;28;20024;-49
2022/01/19 03:35:56;;;;;;;37.42;23.88;;;;;;;0.98;71.72;100068.25;5089819;28;20050;-49
2022/01/19 03:38:22;;;;;;;43.35;25.67;;;;;;;1.08;71.36;100058.13;5091395;28;20022;-48
2022/01/19 03:40:48;;;;;;;44.25;24.83;;;;;;;1.14;70.86;100060.28;5090014;28;20035;-48
2022/01/19 03:43:14;;;;;;;40.47;25.25;;;;;;;1.20;70.58;100059.84;5091442;28;20016;-48
2022/01/19 03:45:49;;;;;;;37.90;26.75;;;;;;;1.28;70.50;100054.97;5090042;28;20028;-47
2022/01/19 03:50:40;;;;;;;43.25;26.73;;;;;;;1.15;69.67;100060.19;5091280;28;20036;-51
2022/01/19 03:53:06;;;;;;;36.05;26.40;;;;;;;1.02;69.71;100058.53;5089975;28;20413;-51
2022/01/19 03:55:31;;;;;;;46.85;27.58;;;;;;;0.89;69.59;100054.22;5089935;28;20024;-48
2022/01/19 03:57:57;;;;;;;40.03;28.50;;;;;;;0.75;69.28;100054.31;5089849;28;20056;-49
2022/01/19 04:00:23;;;;;;;41.85;27.60;;;;;;;0.68;70.18;100055.66;5089895;28;20409;-47
2022/01/19 04:02:49;;;;;;;39.40;27.35;;;;;;;0.69;70.41;100049.56;5089833;28;20012;-48
2022/01/19 04:05:37;;;;;;;43.65;28.63;;;;;;;0.63;69.97;100040.47;5092047;28;20028;-48
2022/01/19 04:08:04;;;;;;;38.13;26.35;;;;;;;0.55;70.30;100037.56;5094816;28;20035;-48
2022/01/19 04:10:30;;;;;;;45.58;27.30;;;;;;;0.49;70.56;100028.47;5094977;28;20442;-48
2022/01/19 04:13:08;;;;;;;40.58;28.45;;;;;;;0.54;70.76;100033.31;5093411;28;20162;-49
2022/01/19 04:15:36;;;;;;;38.20;26.40;;;;;;;0.55;71.18;100040.97;5094676;28;20406;-47
2022/01/19 04:18:03;;;;;;;35.22;25.52;;;;;;;0.61;71.14;100038.94;5094508;28;20020;-48
2022/01/19 04:20:29;;;;;;;42.67;26.20;;;;;;;0.42;70.01;100044.47;5093158;28;20032;-48
2022/01/19 04:22:55;;;;;;;45.17;26.95;;;;;;;0.29;71.13;100044.47;5093197;28;20028;-49
2022/01/19 04:25:21;;;;;;;40.42;26.85;;;;;;;0.30;71.12;100044.38;5093058;28;20557;-48
2022/01/19 04:27:46;;;;;;;37.97;24.75;;;;;;;0.34;70.78;100044.97;5093069;28;20115;-49
2022/01/19 04:30:15;;;;;;;43.15;25.67;;;;;;;0.36;71.37;100043.13;5093046;28;20020;-50
2022/01/19 04:33:02;;;;;;;43.50;26.42;;;;;;;0.41;70.48;100051.41;5092973;28;20020;-49
2022/01/19 04:35:32;;;;;;;45.33;26.05;;;;;;;0.34;70.33;100043.25;5094005;28;20048;-49
2022/01/19 04:46:43;;;;;;;51.23;25.10;;;;;;;0.40;70.19;100049.72;5094143;28;20035;-48
2022/01/19 05:05:06;;;;;;;42.88;26.75;;;;;;;0.01;70.75;100056.59;5093948;28;20596;-47
2022/01/19 05:08:14;;;;;;;47.35;30.42;;;;;;;-0.07;71.12;100057.06;5093656;28;20111;-48
2022/01/19 05:15:50;;;;;;;41.10;27.05;;;;;;;-0.16;70.59;100054.25;5093008;28;20131;-48
2022/01/19 05:18:17;;;;;;;41.15;25.33;;;;;;;-0.22;71.39;100052.91;5091992;28;20119;-49
2022/01/19 05:20:45;;;;;;;39.58;26.05;;;;;;;-0.27;71.85;100052.34;5093274;28;20017;-49
2022/01/19 05:23:11;;;;;;;39.70;26.10;;;;;;;-0.35;71.88;100049.44;5091963;28;20473;-49
2022/01/19 05:25:37;;;;;;;40.83;25.90;;;;;;;-0.37;72.00;100051.28;5093274;28;20028;-47
2022/01/19 05:28:04;;;;;;;34.28;22.45;;;;;;;-0.30;72.82;100048.22;5093200;28;20020;-51
2022/01/19 05:30:31;;;;;;;39.85;26.45;;;;;;;-0.28;72.32;100040.38;5093128;28;20099;-48
2022/01/19 05:32:56;;;;;;;37.30;24.70;;;;;;;-0.13;72.36;100038.59;5091832;28;20031;-49
2022/01/19 05:35:22;;;;;;;43.63;26.02;;;;;;;0.01;72.49;100043.69;5091515;28;20036;-49
2022/01/19 05:37:48;;;;;;;41.78;26.40;;;;;;;0.01;72.30;100035.13;5092988;28;20024;-49
2022/01/19 05:40:14;;;;;;;41.30;25.58;;;;;;;-0.02;72.42;100036.13;5092986;28;20039;-48
2022/01/19 05:42:40;;;;;;;35.83;24.50;;;;;;;0.15;72.46;100037.63;5091588;28;20031;-48
2022/01/19 05:45:06;;;;;;;36.72;21.33;;;;;;;0.46;72.31;100035.59;5091564;28;20028;-49
2022/01/19 05:47:32;;;;;;;37.38;24.55;;;;;;;0.62;71.41;100022.47;5092867;28;20066;-49
2022/01/19 05:49:59;;;;;;;38.42;27.95;;;;;;;0.63;71.13;100024.16;5092785;28;20032;-48
2022/01/19 05:52:24;;;;;;;41.60;32.05;;;;;;;0.51;70.87;100021.44;5091412;28;20592;-49
2022/01/19 05:54:50;;;;;;;41.42;30.08;;;;;;;0.41;71.08;100027.34;5092755;28;20099;-48
2022/01/19 05:57:16;;;;;;;51.22;31.00;;;;;;;0.30;71.39;100023.72;5092583;28;20020;-48
2022/01/19 05:59:42;;;;;;;44.05;32.10;;;;;;;0.39;71.91;100017.94;5091240;28;20085;-49
2022/01/19 06:02:07;;;;;;;45.67;31.50;;;;;;;0.62;71.39;100031.06;5091291;28;20024;-49
2022/01/19 06:04:33;;;;;;;50.17;36.85;;;;;;;0.64;71.41;100021.44;5092546;28;20024;-48
2022/01/19 06:07:02;;;;;;;49.95;34.88;;;;;;;0.60;70.96;100027.75;5091165;28;20092;-48
2022/01/19 06:12:13;;;;;;;46.95;31.33;;;;;;;0.27;71.97;100033.41;5092453;28;20516;-47
2022/01/19 06:14:41;;;;;;;49.40;33.45;;;;;;;0.29;71.73;100028.97;5092340;28;20048;-49
2022/01/19 06:17:09;;;;;;;46.53;29.33;;;;;;;0.25;71.21;100030.94;5092264;28;20055;-47
2022/01/19 06:19:36;;;;;;;50.05;32.55;;;;;;;0.14;71.49;100029.06;5092333;28;20028;-47
2022/01/19 06:22:02;;;;;;;48.00;29.60;;;;;;;0.07;71.69;100034.72;5091041;28;20047;-48
2022/01/19 06:24:27;;;;;;;45.05;27.73;;;;;;;0.18;72.43;100027.06;5092248;28;20058;-48
2022/01/19 06:26:55;;;;;;;44.97;26.80;;;;;;;0.33;72.35;100026.06;5091395;28;20024;-49
2022/01/19 06:29:21;;;;;;;45.88;28.70;;;;;;;0.53;71.69;100022.16;5092151;28;20024;-49
2022/01/19 06:31:48;;;;;;;57.50;31.83;;;;;;;0.59;71.49;100023.53;5092119;28;20050;-49
2022/01/19 06:34:14;;;;;;;46.60;28.08;;;;;;;0.54;70.72;100013.50;5092173;28;20509;-49
2022/01/19 06:36:39;;;;;;;53.28;27.98;;;;;;;0.60;71.07;100017.41;5090511;28;20086;-50
2022/01/19 06:39:06;;;;;;;57.72;30.73;;;;;;;0.56;70.88;100021.13;5090707;28;20024;-50
2022/01/19 06:41:31;;;;;;;58.40;27.50;;;;;;;0.43;70.95;100022.91;5091978;28;20016;-47
2022/01/19 06:43:57;;;;;;;49.53;27.60;;;;;;;0.45;71.30;100029.59;5091992;28;20081;-49
2022/01/19 06:46:23;;;;;;;61.78;26.48;;;;;;;0.46;71.15;100028.66;5091918;28;20016;-49
2022/01/19 06:48:49;;;;;;;48.72;25.85;;;;;;;0.48;71.25;100023.41;5090604;28;20032;-49
2022/01/19 06:51:15;;;;;;;48.75;26.48;;;;;;;0.45;70.49;100024.44;5091910;28;20023;-49
2022/01/19 06:53:40;;;;;;;59.92;27.67;;;;;;;0.39;69.98;100024.84;5091860;28;20035;-48
2022/01/19 06:56:06;;;;;;;46.35;22.52;;;;;;;0.35;70.42;100023.41;5090530;28;20100;-49
2022/01/19 06:58:32;;;;;;;64.93;25.90;;;;;;;0.30;70.71;100031.47;5090437;28;20379;-49
2022/01/19 07:00:58;;;;;;;52.70;25.55;;;;;;;0.35;70.68;100023.41;5090476;28;20070;-47
2022/01/19 07:03:24;;;;;;;54.90;25.92;;;;;;;0.35;70.40;100039.72;5091782;28;20020;-49
2022/01/19 07:05:51;;;;;;;47.38;23.67;;;;;;;0.37;69.55;100042.22;5090450;28;20022;-49
2022/01/19 07:08:17;;;;;;;49.97;27.23;;;;;;;0.18;69.33;100050.31;5091710;28;20073;-49
2022/01/19 07:10:42;;;;;;;50.80;28.02;;;;;;;0.07;70.04;100045.84;5090328;28;20498;-49
2022/01/19 07:13:08;;;;;;;43.53;25.02;;;;;;;-0.01;69.42;100048.94;5090383;28;20051;-48
2022/01/19 07:15:36;;;;;;;57.55;26.92;;;;;;;0.00;69.57;100057.53;5091594;28;20048;-48
2022/01/19 07:18:04;;;;;;;39.50;25.88;;;;;;;-0.03;70.02;100058.53;5091566;28;20024;-49
2022/01/19 07:20:30;;;;;;;48.80;27.65;;;;;;;-0.09;69.53;100060.69;5091590;28;20109;-47
2022/01/19 07:22:57;;;;;;;45.50;25.70;;;;;;;-0.04;70.13;100059.47;5091651;28;20027;-49
2022/01/19 07:25:23;;;;;;;44.50;25.42;;;;;;;-0.01;69.69;100067.00;5091550;28;20055;-51
2022/01/19 07:27:49;;;;;;;40.13;23.13;;;;;;;0.01;69.85;100063.50;5091556;28;20081;-48
2022/01/19 07:30:15;;;;;;;44.92;25.33;;;;;;;0.23;70.33;100070.69;5090174;28;20460;-48
2022/01/19 07:32:42;;;;;;;41.42;25.02;;;;;;;0.48;69.63;100069.88;5091554;28;20023;-49
2022/01/19 07:35:08;;;;;;;40.08;25.25;;;;;;;0.72;69.03;100063.09;5091231;28;20036;-48
2022/01/19 07:37:34;;;;;;;50.65;25.13;;;;;;;0.95;68.87;100060.72;5091422;28;20020;-49
2022/01/19 07:40:00;;;;;;;41.13;27.63;;;;;;;1.28;69.31;100060.16;5093733;28;20521;-49
2022/01/19 07:42:26;;;;;;;42.05;27.77;;;;;;;1.61;68.64;100053.56;5095300;28;20490;-49
2022/01/19 07:44:53;;;;;;;41.83;26.17;;;;;;;1.95;68.04;100056.28;5095268;28;20119;-50
2022/01/19 07:47:20;;;;;;;43.05;26.60;;;;;;;2.20;66.89;100052.75;5095206;28;20051;-50
2022/01/19 07:49:46;;;;;;;40.10;27.42;;;;;;;2.36;65.96;100057.63;5095141;28;20020;-49
2022/01/19 07:52:12;;;;;;;45.10;25.85;;;;;;;2.47;65.63;100055.06;5095112;28;20396;-48
2022/01/19 07:54:38;;;;;;;40.42;25.77;;;;;;;2.72;65.95;100056.66;5095150;28;20099;-49
2022/01/19 07:57:04;;;;;;;59.53;27.65;;;;;;;3.15;65.25;100065.50;5094927;28;20115;-48
2022/01/19 07:59:29;;;;;;;45.70;25.67;;;;;;;3.15;64.07;100070.69;5093617;28;20097;-49
2022/01/19 08:01:56;;;;;;;46.13;27.10;;;;;;;3.38;64.03;100071.50;5094946;28;20124;-48
2022/01/19 08:04:22;;;;;;;47.42;27.85;;;;;;;3.94;64.17;100074.00;5094823;28;20020;-48
2022/01/19 08:06:53;;;;;;;49.58;27.40;;;;;;;4.24;62.76;100077.63;5094787;28;20031;-50
2022/01/19 08:09:25;;;;;;;52.42;27.75;;;;;;;4.24;61.54;100082.00;5094758;28;20576;-51
2022/01/19 08:11:52;;;;;;;56.28;27.05;;;;;;;4.31;60.29;100085.78;5094773;28;20036;-50
2022/01/19 08:14:18;;;;;;;47.70;28.15;;;;;;;4.37;59.65;100090.47;5094617;28;20172;-51
2022/01/19 08:16:44;;;;;;;39.45;26.45;;;;;;;4.50;59.28;100096.28;5094527;28;20115;-51
2022/01/19 08:19:10;;;;;;;53.95;28.98;;;;;;;4.57;57.70;100094.84;5094590;28;20096;-48
2022/01/19 08:21:36;;;;;;;43.45;26.60;;;;;;;4.54;57.56;100100.28;5094526;28;20046;-49
2022/01/19 08:24:01;;;;;;;41.55;27.60;;;;;;;4.52;57.77;100112.59;5094798;28;20807;-48
2022/01/19 08:26:27;;;;;;;56.42;31.42;;;;;;;4.45;57.42;100118.41;5094454;28;20043;-51
2022/01/19 08:28:53;;;;;;;57.15;29.80;;;;;;;4.28;57.92;100119.78;5093013;28;20020;-50
2022/01/19 08:31:19;;;;;;;53.53;27.75;;;;;;;4.17;58.53;100125.88;5094348;28;20020;-51
2022/01/19 08:33:44;;;;;;;250.55;211.85;;;;;;;4.19;59.19;100131.75;5092965;28;20020;-50
2022/01/19 08:36:10;;;;;;;94.65;64.30;;;;;;;4.21;59.29;100127.25;5092677;28;20036;-50
2022/01/19 08:38:36;;;;;;;81.88;52.90;;;;;;;4.25;58.85;100120.06;5094173;28;20482;-50
2022/01/19 08:41:02;;;;;;;63.05;47.78;;;;;;;4.25;58.85;100130.44;5094162;28;20099;-51
2022/01/19 08:43:28;;;;;;;57.13;33.38;;;;;;;4.20;59.45;100131.66;5094056;28;20067;-51
2022/01/19 08:45:56;;;;;;;57.75;32.88;;;;;;;4.24;59.49;100132.19;5094089;28;20016;-49
2022/01/19 08:48:22;;;;;;;50.22;30.42;;;;;;;4.30;59.84;100134.28;5093987;28;20034;-51
2022/01/19 08:50:48;;;;;;;60.25;31.98;;;;;;;4.34;60.10;100130.50;5093060;28;20099;-50
2022/01/19 08:53:15;;;;;;;62.25;33.17;;;;;;;4.44;59.69;100138.38;5093941;28;20016;-51
2022/01/19 08:55:40;;;;;;;56.28;34.00;;;;;;;4.53;60.14;100140.25;5092550;28;20111;-51
2022/01/19 08:58:07;;;;;;;64.63;34.90;;;;;;;4.59;59.82;100138.94;5092418;28;20169;-50
2022/01/19 09:00:33;;;;;;;55.80;33.42;;;;;;;4.71;60.31;100139.66;5093791;28;20020;-50
2022/01/19 09:02:59;;;;;;;47.47;32.72;;;;;;;4.85;59.90;100149.78;5092418;28;20115;-50
2022/01/19 09:05:25;;;;;;;56.85;33.17;;;;;;;4.99;60.25;100146.03;5092300;28;20157;-50
2022/01/19 09:07:51;;;;;;;58.28;30.88;;;;;;;5.15;59.80;100145.53;5092324;28;20036;-51
2022/01/19 09:10:17;;;;;;;54.08;34.17;;;;;;;5.30;59.11;100148.66;5092288;28;20116;-50
2022/01/19 09:12:44;;;;;;;62.60;34.30;;;;;;;5.44;59.56;100155.28;5093532;28;20550;-52
2022/01/19 09:15:10;;;;;;;61.47;34.67;;;;;;;5.51;59.53;100159.00;5092091;28;20020;-50
2022/01/19 09:17:37;;;;;;;68.40;36.72;;;;;;;5.65;59.06;100165.63;5093392;28;20035;-51
2022/01/19 09:20:06;;;;;;;56.88;31.77;;;;;;;5.69;57.94;100164.41;5093439;28;20095;-50
2022/01/19 09:22:33;;;;;;;65.15;36.63;;;;;;;5.55;58.21;100166.44;5093420;28;20024;-50
2022/01/19 09:24:59;;;;;;;67.22;33.92;;;;;;;5.50;58.48;100170.38;5091974;28;20555;-51
2022/01/19 09:27:25;;;;;;;66.35;34.97;;;;;;;5.44;57.76;100163.91;5091917;28;20138;-51
2022/01/19 09:29:50;;;;;;;71.80;34.92;;;;;;;5.45;58.60;100170.75;5093228;28;20095;-49
2022/01/19 09:32:16;;;;;;;63.75;35.95;;;;;;;5.67;58.75;100177.56;5091714;28;20492;-49
2022/01/19 09:34:48;;;;;;;61.80;36.38;;;;;;;5.85;57.92;100174.34;5092687;28;20458;-51
2022/01/19 09:37:16;;;;;;;69.90;37.47;;;;;;;5.98;58.13;100174.97;5093011;28;20028;-51
2022/01/19 09:39:42;;;;;;;68.45;35.70;;;;;;;6.04;57.47;100174.44;5091690;28;20024;-51
2022/01/19 09:42:08;;;;;;;67.88;37.30;;;;;;;6.03;57.77;100170.16;5092949;28;20112;-51
2022/01/19 09:44:34;;;;;;;73.65;38.50;;;;;;;6.00;57.69;100168.66;5092990;28;20099;-49
2022/01/19 09:46:59;;;;;;;56.58;35.83;;;;;;;5.89;57.70;100175.72;5092857;28;20107;-51
2022/01/19 09:49:25;;;;;;;99.80;75.38;;;;;;;5.73;57.81;100168.41;5091534;28;20461;-50
2022/01/19 09:51:54;;;;;;;104.00;81.80;;;;;;;5.70;58.67;100161.69;5092764;28;20016;-49
2022/01/19 09:54:23;;;;;;;70.20;39.45;;;;;;;5.85;58.82;100176.94;5092746;28;20031;-49
2022/01/19 09:56:49;;;;;;;62.08;39.92;;;;;;;5.98;57.78;100182.78;5092602;28;20024;-48
2022/01/19 09:59:16;;;;;;;64.28;40.15;;;;;;;6.05;58.20;100181.28;5092940;28;20028;-49
2022/01/19 10:02:11;;;;;;;55.38;35.72;;;;;;;6.16;57.85;100189.00;5092538;28;20024;-49
2022/01/19 10:04:44;;;;;;;59.17;36.58;;;;;;;6.14;57.93;100182.28;5079327;28;20178;-51
2022/01/19 10:07:32;;;;;;;53.92;35.80;;;;;;;6.09;57.68;100190.47;5092557;28;20051;-50
2022/01/19 10:10:07;;;;;;;52.70;35.83;;;;;;;6.15;58.26;100187.31;5090759;28;20039;-50
2022/01/19 10:18:22;;;;;;;53.10;35.58;;;;;;;6.11;57.90;100180.72;5092288;28;20512;-51
2022/01/19 10:21:07;;;;;;;58.78;35.92;;;;;;;6.06;58.08;100188.16;5091078;28;20508;-50
2022/01/19 10:23:50;;;;;;;53.50;32.53;;;;;;;5.96;57.75;100185.50;5092332;28;20024;-50
2022/01/19 10:26:25;;;;;;;51.85;34.25;;;;;;;5.92;57.60;100185.88;5092203;28;20024;-50
2022/01/19 10:29:09;;;;;;;46.08;30.67;;;;;;;5.88;58.19;100177.50;5092174;28;20059;-51
2022/01/19 10:31:37;;;;;;;50.25;29.80;;;;;;;5.77;57.36;100173.22;5092213;28;20091;-49
2022/01/19 10:34:17;;;;;;;46.65;32.00;;;;;;;5.59;57.71;100175.63;5090810;28;20585;-47
2022/01/19 10:36:45;;;;;;;47.65;31.90;;;;;;;5.47;58.41;100165.44;5091759;28;20128;-48
2022/01/19 10:39:11;;;;;;;52.97;32.33;;;;;;;5.46;58.47;100175.03;5092027;28;20050;-48
2022/01/19 10:41:56;;;;;;;54.60;32.63;;;;;;;5.42;58.75;100173.63;5090915;28;20043;-47
2022/01/19 10:44:33;;;;;;;56.40;32.90;;;;;;;5.53;59.68;100167.50;5092027;28;20035;-48
2022/01/19 10:46:59;;;;;;;54.70;33.13;;;;;;;5.71;58.41;100158.09;5090680;28;20559;-49
2022/01/19 10:49:25;;;;;;;52.08;31.85;;;;;;;5.96;59.04;100169.06;5091858;28;20016;-48
2022/01/19 10:51:57;;;;;;;52.35;31.00;;;;;;;6.11;58.16;100174.72;5092086;28;20032;-49
2022/01/19 10:54:26;;;;;;;55.75;33.83;;;;;;;6.23;57.77;100157.97;5090561;28;20035;-48
2022/01/19 10:56:58;;;;;;;68.18;34.92;;;;;;;6.29;57.86;100159.22;5091742;28;20024;-49
2022/01/19 10:59:29;;;;;;;55.90;34.53;;;;;;;6.35;57.48;100150.84;5092145;28;20024;-49
2022/01/19 11:01:58;;;;;;;52.17;33.85;;;;;;;6.40;57.69;100157.31;5090498;28;20448;-49
2022/01/19 11:04:31;;;;;;;58.65;34.75;;;;;;;6.45;57.38;100154.28;5091813;28;20016;-49
2022/01/19 11:07:01;;;;;;;65.80;34.28;;;;;;;6.43;56.83;100148.38;5091783;28;20490;-48
2022/01/19 11:09:29;;;;;;;62.22;36.00;;;;;;;6.31;57.68;100145.09;5092076;28;20030;-48
2022/01/19 11:12:10;;;;;;;66.93;38.90;;;;;;;6.26;57.55;100146.44;5091766;28;20032;-49
2022/01/19 11:14:37;;;;;;;63.17;36.30;;;;;;;6.19;57.74;100147.00;5095002;28;20100;-50
2022/01/19 11:17:04;;;;;;;68.57;36.95;;;;;;;6.15;57.78;100131.78;5095765;28;20055;-50
2022/01/19 11:19:30;;;;;;;65.95;38.17;;;;;;;6.16;57.50;100129.03;5095757;28;20426;-50
2022/01/19 11:22:36;;;;;;;63.03;40.00;;;;;;;6.07;57.54;100140.25;5094337;28;20111;-49
2022/01/19 11:25:22;;;;;;;62.40;37.95;;;;;;;5.90;58.47;100123.47;5091870;28;20043;-50
2022/01/19 11:27:49;;;;;;;63.15;38.05;;;;;;;5.87;57.99;100125.53;5095671;28;20067;-51
2022/01/19 11:30:32;;;;;;;69.13;38.33;;;;;;;5.81;58.50;100119.06;5094233;28;20038;-51
2022/01/19 11:33:16;;;;;;;78.68;39.80;;;;;;;5.79;58.28;100121.81;5094270;28;20115;-51
2022/01/19 11:35:47;;;;;;;64.43;37.85;;;;;;;5.79;58.43;100106.19;5095222;28;20497;-50
2022/01/19 11:38:49;;;;;;;61.60;36.92;;;;;;;5.87;58.31;100105.50;5094066;28;20028;-51
2022/01/19 11:41:14;;;;;;;72.30;39.95;;;;;;;5.93;59.04;100109.34;5093512;28;20040;-50
2022/01/19 11:43:53;;;;;;;71.18;40.17;;;;;;;5.95;58.55;100103.06;5095303;28;20020;-50
2022/01/19 11:46:34;;;;;;;67.68;38.65;;;;;;;5.97;58.51;100102.94;5093908;28;20122;-50
2022/01/19 11:49:03;;;;;;;70.68;39.90;;;;;;;5.86;57.99;100101.25;5093903;28;20111;-51
2022/01/19 11:51:55;;;;;;;80.72;39.75;;;;;;;5.66;59.16;100091.78;5095135;28;20020;-51
2022/01/19 11:54:35;;;;;;;62.38;34.33;;;;;;;5.66;59.06;100089.16;5092285;28;20040;-51
2022/01/19 11:57:02;;;;;;;59.45;36.35;;;;;;;5.73;58.90;100091.06;5093679;28;20409;-51
2022/01/19 11:59:30;;;;;;;63.83;35.80;;;;;;;5.85;59.11;100090.97;5095033;28;20031;-51
2022/01/19 12:02:21;;;;;;;56.92;33.63;;;;;;;6.02;59.18;100090.34;5094952;28;20497;-50
2022/01/19 12:05:00;;;;;;;58.55;35.08;;;;;;;6.09;58.59;100086.22;5094955;28;20024;-50
2022/01/19 12:07:41;;;;;;;51.67;30.88;;;;;;;6.20;58.67;100086.09;5093615;28;20042;-50
2022/01/19 12:10:09;;;;;;;47.25;29.60;;;;;;;6.33;57.93;100088.41;5093525;28;20110;-49
2022/01/19 12:12:43;;;;;;;54.70;29.73;;;;;;;6.23;58.10;100086.78;5094801;28;20028;-50
2022/01/19 12:15:46;;;;;;;50.70;32.78;;;;;;;6.10;57.80;100072.25;5094625;28;20028;-51
2022/01/19 12:18:37;;;;;;;53.90;29.73;;;;;;;6.22;58.28;100070.31;5093266;28;20059;-50
2022/01/19 12:21:03;;;;;;;43.05;30.67;;;;;;;6.35;58.00;100064.81;5093255;28;20494;-51
2022/01/19 12:23:32;;;;;;;48.65;30.75;;;;;;;6.34;58.03;100065.78;5093234;28;20020;-50
2022/01/19 12:26:01;;;;;;;52.45;31.88;;;;;;;6.43;57.95;100059.72;5093146;28;20072;-50
2022/01/19 12:28:48;;;;;;;46.05;30.33;;;;;;;6.63;58.19;100044.88;5093110;28;20085;-51
2022/01/19 12:31:26;;;;;;;46.25;30.48;;;;;;;6.53;57.98;100049.28;5094623;28;20027;-50
2022/01/19 12:34:04;;;;;;;49.80;28.95;;;;;;;6.65;57.31;100048.16;5094369;28;20550;-51
2022/01/19 12:36:40;;;;;;;57.78;29.45;;;;;;;6.94;56.91;100049.84;5094036;28;20486;-49
2022/01/19 12:39:24;;;;;;;51.08;30.08;;;;;;;7.28;56.66;100044.88;5094230;28;20502;-49
2022/01/19 12:42:15;;;;;;;48.63;28.85;;;;;;;7.36;56.01;100041.56;5092827;28;20028;-50
2022/01/19 12:44:53;;;;;;;45.08;30.70;;;;;;;7.40;54.80;100035.91;5094167;28;20157;-49
2022/01/19 12:47:26;;;;;;;53.15;30.38;;;;;;;7.27;55.44;100039.84;5092746;28;20121;-49
2022/01/19 12:50:08;;;;;;;65.03;31.45;;;;;;;7.30;55.85;100039.53;5092701;28;20429;-49